CSCL Fuzhou — ELYA7 — position and weather

sailwx.info

Track history (hours):
 
Tides and Currents Weather Stations Pressure Air Temp Water Temp Dewpoint Dewpoint Depression Visibility Wind Speed Wind Dir Waves Ship Positions

CSCL Fuzhou

Last reported at 2017-Mar-23 08:33 UTC. Time now 2017-Mar-29 09:16 UTC.
Position N 01°15' E 104°01'.

Length 207.4 m; beam 29.8 m; draft 11.4 m.

Type: Ship (hazmat cat A). MMSI: 636016483.

Date/timePositionNaut miles runAvg speedWind from/ knotsBaromVisibWave heightAir tempDewpointWater temp
2017-Mar-23 08:33N 01°15' E 104°01'2019.7
2017-Mar-23 07:33N 01°05' E 103°44'1313.4
2017-Mar-23 06:33N 01°12' E 103°32'1010.1
2017-Mar-23 05:33N 01°22' E 103°32'0 0.2
2017-Mar-23 04:28N 01°22' E 103°33'0 0.0
2017-Mar-23 03:31N 01°22' E 103°33'0 0.0
2017-Mar-23 02:28N 01°22' E 103°33'0 0.0
2017-Mar-23 01:22N 01°22' E 103°33'0 0.0
2017-Mar-22 23:22N 01°22' E 103°33'0 0.0
2017-Mar-22 22:16N 01°22' E 103°33'0 0.0
2017-Mar-22 21:10N 01°22' E 103°33'0 0.0
2017-Mar-22 20:04N 01°22' E 103°33'0 0.0
2017-Mar-22 19:28N 01°22' E 103°33'0 0.0
2017-Mar-22 18:04N 01°22' E 103°33'0 0.0
2017-Mar-22 17:22N 01°22' E 103°33'0 0.0
2017-Mar-22 16:25N 01°22' E 103°33'0 0.0
2017-Mar-22 13:13N 01°22' E 103°33'0 0.0
2017-Mar-22 12:31N 01°22' E 103°33'0 0.0
2017-Mar-22 11:22N 01°22' E 103°33'0 0.0
2017-Mar-22 10:28N 01°22' E 103°33'0 0.0
2017-Mar-22 08:31N 01°22' E 103°33'2 2.3
2017-Mar-22 07:33N 01°20' E 103°33'10 9.7
2017-Mar-22 06:33N 01°11' E 103°31'1313.1
2017-Mar-22 05:33N 01°17' E 103°19'5618.1
2017-Mar-22 02:28N 01°46' E 102°32'2317.7
2017-Mar-22 01:12N 01°57' E 102°11'1117.9
2017-Mar-22 00:33N 02°04' E 102°03'22317.8
2017-Mar-21 12:04N 05°14' E 100°06'19 7.6
2017-Mar-21 09:33N 05°25' E 100°22'0 0.0
2017-Mar-21 05:09N 05°25' E 100°22'0 0.1
2017-Mar-21 04:33N 05°25' E 100°22'0 0.0
2017-Mar-20 21:33N 05°25' E 100°22'0 0.0
2017-Mar-20 20:21N 05°25' E 100°22'0 0.0
2017-Mar-20 17:27N 05°25' E 100°22'0 0.1
2017-Mar-20 16:33N 05°25' E 100°22'0 0.0
2017-Mar-20 09:33N 05°25' E 100°22'0 0.0
2017-Mar-20 08:33N 05°25' E 100°22'0 0.1
2017-Mar-20 07:33N 05°25' E 100°22'0 0.0
2017-Mar-20 04:23N 05°25' E 100°22'2 2.0
2017-Mar-20 03:26N 05°27' E 100°21'239 5.8
2017-Mar-18 10:31N 01°57' E 102°17'1715.7
2017-Mar-18 09:24N 01°50' E 102°32'7014.4
2017-Mar-18 04:33N 01°13' E 103°32'1111.2
2017-Mar-18 03:33N 01°14' E 103°43'4 4.0
2017-Mar-18 02:33N 01°17' E 103°46'0 0.0
2017-Mar-18 01:33N 01°17' E 103°46'0 0.0
2017-Mar-18 00:30N 01°17' E 103°46'0 0.0
2017-Mar-17 23:33N 01°17' E 103°46'0 0.0
2017-Mar-17 22:33N 01°17' E 103°46'0 0.0
2017-Mar-17 21:33N 01°17' E 103°46'0 0.0
2017-Mar-17 20:33N 01°17' E 103°46'0 0.0
2017-Mar-17 19:33N 01°17' E 103°46'1 1.0
2017-Mar-17 18:34N 01°17' E 103°45'5 4.5
2017-Mar-17 17:25N 01°13' E 103°49'0 0.0
2017-Mar-17 16:31N 01°13' E 103°49'0 0.0
2017-Mar-17 15:22N 01°13' E 103°49'0 0.0
2017-Mar-17 14:28N 01°13' E 103°49'0 0.0
2017-Mar-17 13:31N 01°13' E 103°49'5 4.8
2017-Mar-17 12:33N 01°13' E 103°53'4 4.4
2017-Mar-17 11:33N 01°15' E 103°57'  
2017-Mar-13 23:17N 22°22' E 120°04'1419.6
2017-Mar-13 22:33N 22°32' E 120°14'5 4.7
2017-Mar-13 21:30N 22°33' E 120°19'0 0.0
2017-Mar-13 20:30N 22°33' E 120°19'0 0.1
2017-Mar-13 19:30N 22°33' E 120°19'0 0.1
2017-Mar-13 18:24N 22°33' E 120°19'0 0.0
2017-Mar-13 17:30N 22°33' E 120°19'0 0.0
2017-Mar-13 16:30N 22°33' E 120°19'0 0.0
2017-Mar-13 15:24N 22°33' E 120°19'0 0.0
2017-Mar-13 14:24N 22°33' E 120°19'0 0.0
2017-Mar-13 13:30N 22°33' E 120°19'0 0.0
2017-Mar-13 12:30N 22°33' E 120°19'0 0.0
2017-Mar-13 11:30N 22°33' E 120°19'0 0.0
2017-Mar-13 10:30N 22°33' E 120°19'0 0.0
2017-Mar-13 09:30N 22°33' E 120°19'  
Track history (hours):
 
Tides and Currents Weather Stations Pressure Air Temp Water Temp Dewpoint Dewpoint Depression Visibility Wind Speed Wind Dir Waves Ship Positions

CSCL Fuzhou

Last reported at 2017-Mar-23 08:33 UTC. Time now 2017-Mar-29 09:16 UTC.
Position N 01°15' E 104°01'.

Length 207.4 m; beam 29.8 m; draft 11.4 m.

Type: Ship (hazmat cat A). MMSI: 636016483.

Date/timePositionNaut miles runAvg speedWind from/ knotsBaromVisibWave heightAir tempDewpointWater temp
2017-Mar-23 08:33N 01°15' E 104°01'2019.7
2017-Mar-23 07:33N 01°05' E 103°44'1313.4
2017-Mar-23 06:33N 01°12' E 103°32'1010.1
2017-Mar-23 05:33N 01°22' E 103°32'0 0.2
2017-Mar-23 04:28N 01°22' E 103°33'0 0.0
2017-Mar-23 03:31N 01°22' E 103°33'0 0.0
2017-Mar-23 02:28N 01°22' E 103°33'0 0.0
2017-Mar-23 01:22N 01°22' E 103°33'0 0.0
2017-Mar-22 23:22N 01°22' E 103°33'0 0.0
2017-Mar-22 22:16N 01°22' E 103°33'0 0.0
2017-Mar-22 21:10N 01°22' E 103°33'0 0.0
2017-Mar-22 20:04N 01°22' E 103°33'0 0.0
2017-Mar-22 19:28N 01°22' E 103°33'0 0.0
2017-Mar-22 18:04N 01°22' E 103°33'0 0.0
2017-Mar-22 17:22N 01°22' E 103°33'0 0.0
2017-Mar-22 16:25N 01°22' E 103°33'0 0.0
2017-Mar-22 13:13N 01°22' E 103°33'0 0.0
2017-Mar-22 12:31N 01°22' E 103°33'0 0.0
2017-Mar-22 11:22N 01°22' E 103°33'0 0.0
2017-Mar-22 10:28N 01°22' E 103°33'0 0.0
2017-Mar-22 08:31N 01°22' E 103°33'2 2.3
2017-Mar-22 07:33N 01°20' E 103°33'10 9.7
2017-Mar-22 06:33N 01°11' E 103°31'1313.1
2017-Mar-22 05:33N 01°17' E 103°19'5618.1
2017-Mar-22 02:28N 01°46' E 102°32'2317.7
2017-Mar-22 01:12N 01°57' E 102°11'1117.9
2017-Mar-22 00:33N 02°04' E 102°03'22317.8
2017-Mar-21 12:04N 05°14' E 100°06'19 7.6
2017-Mar-21 09:33N 05°25' E 100°22'0 0.0
2017-Mar-21 05:09N 05°25' E 100°22'0 0.1
2017-Mar-21 04:33N 05°25' E 100°22'0 0.0
2017-Mar-20 21:33N 05°25' E 100°22'0 0.0
2017-Mar-20 20:21N 05°25' E 100°22'0 0.0
2017-Mar-20 17:27N 05°25' E 100°22'0 0.1
2017-Mar-20 16:33N 05°25' E 100°22'0 0.0
2017-Mar-20 09:33N 05°25' E 100°22'0 0.0
2017-Mar-20 08:33N 05°25' E 100°22'0 0.1
2017-Mar-20 07:33N 05°25' E 100°22'0 0.0
2017-Mar-20 04:23N 05°25' E 100°22'2 2.0
2017-Mar-20 03:26N 05°27' E 100°21'239 5.8
2017-Mar-18 10:31N 01°57' E 102°17'1715.7
2017-Mar-18 09:24N 01°50' E 102°32'7014.4
2017-Mar-18 04:33N 01°13' E 103°32'1111.2
2017-Mar-18 03:33N 01°14' E 103°43'4 4.0
2017-Mar-18 02:33N 01°17' E 103°46'0 0.0
2017-Mar-18 01:33N 01°17' E 103°46'0 0.0
2017-Mar-18 00:30N 01°17' E 103°46'0 0.0
2017-Mar-17 23:33N 01°17' E 103°46'0 0.0
2017-Mar-17 22:33N 01°17' E 103°46'0 0.0
2017-Mar-17 21:33N 01°17' E 103°46'0 0.0
2017-Mar-17 20:33N 01°17' E 103°46'0 0.0
2017-Mar-17 19:33N 01°17' E 103°46'1 1.0
2017-Mar-17 18:34N 01°17' E 103°45'5 4.5
2017-Mar-17 17:25N 01°13' E 103°49'0 0.0
2017-Mar-17 16:31N 01°13' E 103°49'0 0.0
2017-Mar-17 15:22N 01°13' E 103°49'0 0.0
2017-Mar-17 14:28N 01°13' E 103°49'0 0.0
2017-Mar-17 13:31N 01°13' E 103°49'5 4.8
2017-Mar-17 12:33N 01°13' E 103°53'4 4.4
2017-Mar-17 11:33N 01°15' E 103°57'  
2017-Mar-13 23:17N 22°22' E 120°04'1419.6
2017-Mar-13 22:33N 22°32' E 120°14'5 4.7
2017-Mar-13 21:30N 22°33' E 120°19'0 0.0
2017-Mar-13 20:30N 22°33' E 120°19'0 0.1
2017-Mar-13 19:30N 22°33' E 120°19'0 0.1
2017-Mar-13 18:24N 22°33' E 120°19'0 0.0
2017-Mar-13 17:30N 22°33' E 120°19'0 0.0
2017-Mar-13 16:30N 22°33' E 120°19'0 0.0
2017-Mar-13 15:24N 22°33' E 120°19'0 0.0
2017-Mar-13 14:24N 22°33' E 120°19'0 0.0
2017-Mar-13 13:30N 22°33' E 120°19'0 0.0
2017-Mar-13 12:30N 22°33' E 120°19'0 0.0
2017-Mar-13 11:30N 22°33' E 120°19'0 0.0
2017-Mar-13 10:30N 22°33' E 120°19'0 0.0
2017-Mar-13 09:30N 22°33' E 120°19'  

Dump ship's entire track history